sensor_id;sensor_type;location;lat;lon;timestamp;pressure;altitude;pressure_sealevel;temperature;humidity
51928;BME280;37953;52.806;18.270;2023-02-17T00:02:07;100909.03;;;6.41;100.00
51928;BME280;37953;52.806;18.270;2023-02-17T00:04:33;100907.34;;;6.42;100.00
51928;BME280;37953;52.806;18.270;2023-02-17T00:06:59;100909.94;;;6.42;100.00
51928;BME280;37953;52.806;18.270;2023-02-17T00:09:25;100904.78;;;6.42;100.00
51928;BME280;37953;52.806;18.270;2023-02-17T00:11:51;100905.66;;;6.42;100.00
51928;BME280;37953;52.806;18.270;2023-02-17T00:14:17;100903.06;;;6.42;100.00
51928;BME280;37953;52.806;18.270;2023-02-17T00:16:43;100905.66;;;6.42;100.00
51928;BME280;37953;52.806;18.270;2023-02-17T00:19:09;100891.91;;;6.43;100.00
51928;BME280;37953;52.806;18.270;2023-02-17T00:21:58;100891.03;;;6.43;100.00
51928;BME280;37953;52.806;18.270;2023-02-17T00:24:24;100893.59;;;6.43;100.00
51928;BME280;37953;52.806;18.270;2023-02-17T00:26:56;100886.72;;;6.42;100.00
51928;BME280;37953;52.806;18.270;2023-02-17T00:29:21;100892.75;;;6.42;100.00
51928;BME280;37953;52.806;18.270;2023-02-17T00:31:47;100890.97;;;6.41;100.00
51928;BME280;37953;52.806;18.270;2023-02-17T00:34:13;100885.81;;;6.41;100.00
51928;BME280;37953;52.806;18.270;2023-02-17T00:36:41;100885.81;;;6.41;100.00
51928;BME280;37953;52.806;18.270;2023-02-17T00:39:07;100886.72;;;6.42;100.00
51928;BME280;37953;52.806;18.270;2023-02-17T00:41:32;100881.50;;;6.40;100.00
51928;BME280;37953;52.806;18.270;2023-02-17T00:43:58;100891.81;;;6.40;100.00
51928;BME280;37953;52.806;18.270;2023-02-17T00:46:24;100889.25;;;6.40;100.00
51928;BME280;37953;52.806;18.270;2023-02-17T00:48:51;100884.03;;;6.39;100.00
51928;BME280;37953;52.806;18.270;2023-02-17T00:51:17;100886.59;;;6.37;100.00
51928;BME280;37953;52.806;18.270;2023-02-17T00:53:43;100876.28;;;6.37;100.00
51928;BME280;37953;52.806;18.270;2023-02-17T00:56:10;100875.44;;;6.38;100.00
51928;BME280;37953;52.806;18.270;2023-02-17T00:58:36;100867.63;;;6.37;100.00
51928;BME280;37953;52.806;18.270;2023-02-17T01:01:02;100868.53;;;6.37;100.00
51928;BME280;37953;52.806;18.270;2023-02-17T01:03:28;100860.75;;;6.36;100.00
51928;BME280;37953;52.806;18.270;2023-02-17T01:05:55;100861.63;;;6.36;100.00
51928;BME280;37953;52.806;18.270;2023-02-17T01:08:21;100859.88;;;6.35;100.00
51928;BME280;37953;52.806;18.270;2023-02-17T01:10:47;100861.63;;;6.36;100.00
51928;BME280;37953;52.806;18.270;2023-02-17T01:13:14;100858.13;;;6.34;100.00
51928;BME280;37953;52.806;18.270;2023-02-17T01:15:47;100855.53;;;6.34;100.00
51928;BME280;37953;52.806;18.270;2023-02-17T01:18:13;100854.66;;;6.34;100.00
51928;BME280;37953;52.806;18.270;2023-02-17T01:20:39;100847.78;;;6.34;100.00
51928;BME280;37953;52.806;18.270;2023-02-17T01:23:06;100843.50;;;6.35;100.00
51928;BME280;37953;52.806;18.270;2023-02-17T01:25:35;100838.31;;;6.33;100.00
51928;BME280;37953;52.806;18.270;2023-02-17T01:28:00;100839.13;;;6.32;100.00
51928;BME280;37953;52.806;18.270;2023-02-17T01:30:26;100828.81;;;6.32;100.00
51928;BME280;37953;52.806;18.270;2023-02-17T01:32:52;100827.09;;;6.31;100.00
51928;BME280;37953;52.806;18.270;2023-02-17T01:35:18;100821.94;;;6.31;100.00
51928;BME280;37953;52.806;18.270;2023-02-17T01:37:44;100818.44;;;6.29;100.00
51928;BME280;37953;52.806;18.270;2023-02-17T01:40:10;100815.84;;;6.29;100.00
51928;BME280;37953;52.806;18.270;2023-02-17T01:42:42;100802.06;;;6.28;100.00
51928;BME280;37953;52.806;18.270;2023-02-17T01:47:50;100797.78;;;6.29;100.00
51928;BME280;37953;52.806;18.270;2023-02-17T01:50:18;100794.31;;;6.28;100.00
51928;BME280;37953;52.806;18.270;2023-02-17T01:52:45;100788.28;;;6.28;100.00
51928;BME280;37953;52.806;18.270;2023-02-17T01:55:15;100785.72;;;6.28;100.00
51928;BME280;37953;52.806;18.270;2023-02-17T01:57:43;100780.50;;;6.26;100.00
51928;BME280;37953;52.806;18.270;2023-02-17T02:00:11;100777.91;;;6.26;100.00
51928;BME280;37953;52.806;18.270;2023-02-17T02:02:38;100791.72;;;6.27;100.00
51928;BME280;37953;52.806;18.270;2023-02-17T02:05:04;100782.22;;;6.26;100.00
51928;BME280;37953;52.806;18.270;2023-02-17T02:07:34;100771.84;;;6.23;100.00
51928;BME280;37953;52.806;18.270;2023-02-17T02:10:01;100779.63;;;6.26;100.00
51928;BME280;37953;52.806;18.270;2023-02-17T02:12:29;100779.63;;;6.26;100.00
51928;BME280;37953;52.806;18.270;2023-02-17T02:14:57;100774.47;;;6.26;100.00
51928;BME280;37953;52.806;18.270;2023-02-17T02:20:02;100758.94;;;6.24;100.00
51928;BME280;37953;52.806;18.270;2023-02-17T02:27:58;100756.41;;;6.26;100.00
51928;BME280;37953;52.806;18.270;2023-02-17T02:30:37;100756.41;;;6.26;100.00
51928;BME280;37953;52.806;18.270;2023-02-17T02:41:03;100743.47;;;6.24;100.00
51928;BME280;37953;52.806;18.270;2023-02-17T02:43:31;100743.47;;;6.24;100.00
51928;BME280;37953;52.806;18.270;2023-02-17T02:46:03;100750.41;;;6.25;100.00
51928;BME280;37953;52.806;18.270;2023-02-17T02:48:29;100743.47;;;6.24;100.00
51928;BME280;37953;52.806;18.270;2023-02-17T02:59:11;100734.91;;;6.25;100.00
51928;BME280;37953;52.806;18.270;2023-02-17T03:04:49;100734.06;;;6.25;100.00
51928;BME280;37953;52.806;18.270;2023-02-17T03:07:18;100736.63;;;6.25;100.00
51928;BME280;37953;52.806;18.270;2023-02-17T03:09:55;100737.44;;;6.24;100.00
51928;BME280;37953;52.806;18.270;2023-02-17T03:12:22;100736.59;;;6.23;100.00
51928;BME280;37953;52.806;18.270;2023-02-17T03:14:49;100729.69;;;6.22;100.00
51928;BME280;37953;52.806;18.270;2023-02-17T03:17:16;100733.13;;;6.23;100.00
51928;BME280;37953;52.806;18.270;2023-02-17T03:19:42;100730.56;;;6.23;100.00
51928;BME280;37953;52.806;18.270;2023-02-17T03:22:20;100732.28;;;6.24;100.00
51928;BME280;37953;52.806;18.270;2023-02-17T03:24:46;100735.72;;;6.24;100.00
51928;BME280;37953;52.806;18.270;2023-02-17T03:27:12;100727.19;;;6.25;100.00
51928;BME280;37953;52.806;18.270;2023-02-17T03:29:38;100724.59;;;6.25;100.00
51928;BME280;37953;52.806;18.270;2023-02-17T03:32:04;100721.16;;;6.26;100.00
51928;BME280;37953;52.806;18.270;2023-02-17T03:34:30;100716.00;;;6.26;100.00
51928;BME280;37953;52.806;18.270;2023-02-17T03:36:56;100720.34;;;6.27;100.00
51928;BME280;37953;52.806;18.270;2023-02-17T03:39:21;100719.50;;;6.28;100.00
51928;BME280;37953;52.806;18.270;2023-02-17T03:41:47;100716.97;;;6.30;100.00
51928;BME280;37953;52.806;18.270;2023-02-17T03:44:16;100707.56;;;6.32;100.00
51928;BME280;37953;52.806;18.270;2023-02-17T03:46:43;100707.56;;;6.32;100.00
51928;BME280;37953;52.806;18.270;2023-02-17T03:49:14;100704.16;;;6.33;100.00
51928;BME280;37953;52.806;18.270;2023-02-17T03:51:40;100705.84;;;6.32;100.00
51928;BME280;37953;52.806;18.270;2023-02-17T03:54:06;100703.28;;;6.34;100.00
51928;BME280;37953;52.806;18.270;2023-02-17T03:56:32;100702.44;;;6.34;100.00
51928;BME280;37953;52.806;18.270;2023-02-17T03:58:57;100708.47;;;6.34;100.00
51928;BME280;37953;52.806;18.270;2023-02-17T04:01:23;100707.63;;;6.35;100.00
51928;BME280;37953;52.806;18.270;2023-02-17T04:03:49;100708.47;;;6.34;100.00
51928;BME280;37953;52.806;18.270;2023-02-17T04:06:21;100704.16;;;6.35;100.00
51928;BME280;37953;52.806;18.270;2023-02-17T04:08:47;100692.16;;;6.35;100.00
51928;BME280;37953;52.806;18.270;2023-02-17T04:11:13;100687.81;;;6.34;100.00
51928;BME280;37953;52.806;18.270;2023-02-17T04:13:39;100681.84;;;6.35;100.00
51928;BME280;37953;52.806;18.270;2023-02-17T04:16:06;100674.09;;;6.35;100.00
51928;BME280;37953;52.806;18.270;2023-02-17T04:18:33;100668.03;;;6.35;100.00
51928;BME280;37953;52.806;18.270;2023-02-17T04:20:59;100661.19;;;6.35;100.00
51928;BME280;37953;52.806;18.270;2023-02-17T04:23:25;100656.91;;;6.36;100.00
51928;BME280;37953;52.806;18.270;2023-02-17T04:25:51;100655.19;;;6.36;100.00
51928;BME280;37953;52.806;18.270;2023-02-17T04:28:17;100650.03;;;6.36;100.00
51928;BME280;37953;52.806;18.270;2023-02-17T04:30:45;100644.84;;;6.36;100.00
51928;BME280;37953;52.806;18.270;2023-02-17T04:33:24;100638.84;;;6.36;100.00
51928;BME280;37953;52.806;18.270;2023-02-17T04:35:51;100631.09;;;6.36;100.00
51928;BME280;37953;52.806;18.270;2023-02-17T04:38:24;100634.50;;;6.35;100.00
51928;BME280;37953;52.806;18.270;2023-02-17T04:40:52;100633.63;;;6.34;100.00
51928;BME280;37953;52.806;18.270;2023-02-17T04:43:17;100633.59;;;6.32;100.00
51928;BME280;37953;52.806;18.270;2023-02-17T04:45:43;100636.16;;;6.32;100.00
51928;BME280;37953;52.806;18.270;2023-02-17T04:48:09;100631.91;;;6.33;100.00
51928;BME280;37953;52.806;18.270;2023-02-17T04:50:35;100631.00;;;6.31;100.00
51928;BME280;37953;52.806;18.270;2023-02-17T04:53:00;100633.59;;;6.32;100.00
51928;BME280;37953;52.806;18.270;2023-02-17T04:55:26;100625.84;;;6.32;100.00
51928;BME280;37953;52.806;18.270;2023-02-17T04:57:54;100631.88;;;6.31;100.00
51928;BME280;37953;52.806;18.270;2023-02-17T05:00:20;100627.56;;;6.32;100.00
51928;BME280;37953;52.806;18.270;2023-02-17T05:02:45;100617.25;;;6.32;100.00
51928;BME280;37953;52.806;18.270;2023-02-17T05:05:11;100624.97;;;6.32;100.00
51928;BME280;37953;52.806;18.270;2023-02-17T05:07:40;100624.97;;;6.32;100.00
51928;BME280;37953;52.806;18.270;2023-02-17T05:10:06;100625.84;;;6.32;100.00
51928;BME280;37953;52.806;18.270;2023-02-17T05:12:32;100625.84;;;6.31;100.00
51928;BME280;37953;52.806;18.270;2023-02-17T05:14:58;100623.25;;;6.31;100.00
51928;BME280;37953;52.806;18.270;2023-02-17T05:17:24;100621.53;;;6.31;100.00
51928;BME280;37953;52.806;18.270;2023-02-17T05:19:50;100618.09;;;6.31;100.00
51928;BME280;37953;52.806;18.270;2023-02-17T05:22:16;100612.94;;;6.31;100.00
51928;BME280;37953;52.806;18.270;2023-02-17T05:24:42;100621.53;;;6.31;100.00
51928;BME280;37953;52.806;18.270;2023-02-17T05:27:07;100618.09;;;6.31;100.00
51928;BME280;37953;52.806;18.270;2023-02-17T05:29:33;100615.53;;;6.32;100.00
51928;BME280;37953;52.806;18.270;2023-02-17T05:31:59;100607.84;;;6.34;100.00
51928;BME280;37953;52.806;18.270;2023-02-17T05:34:25;100613.91;;;6.36;100.00
51928;BME280;37953;52.806;18.270;2023-02-17T05:36:51;100615.66;;;6.37;100.00
51928;BME280;37953;52.806;18.270;2023-02-17T05:39:17;100615.66;;;6.39;100.00
51928;BME280;37953;52.806;18.270;2023-02-17T05:41:43;100605.38;;;6.40;100.00
51928;BME280;37953;52.806;18.270;2023-02-17T05:44:09;100608.00;;;6.42;100.00
51928;BME280;37953;52.806;18.270;2023-02-17T05:46:34;100608.00;;;6.42;100.00
51928;BME280;37953;52.806;18.270;2023-02-17T05:49:00;100606.28;;;6.42;100.00
51928;BME280;37953;52.806;18.270;2023-02-17T05:51:30;100602.84;;;6.42;100.00
51928;BME280;37953;52.806;18.270;2023-02-17T05:53:56;100598.56;;;6.42;100.00
51928;BME280;37953;52.806;18.270;2023-02-17T05:56:22;100601.13;;;6.42;100.00
51928;BME280;37953;52.806;18.270;2023-02-17T05:58:48;100593.41;;;6.42;100.00
51928;BME280;37953;52.806;18.270;2023-02-17T06:01:14;100596.00;;;6.44;100.00
51928;BME280;37953;52.806;18.270;2023-02-17T06:03:40;100596.88;;;6.44;100.00
51928;BME280;37953;52.806;18.270;2023-02-17T06:06:06;100590.00;;;6.45;100.00
51928;BME280;37953;52.806;18.270;2023-02-17T06:08:32;100596.03;;;6.45;100.00
51928;BME280;37953;52.806;18.270;2023-02-17T06:10:58;100586.56;;;6.44;100.00
51928;BME280;37953;52.806;18.270;2023-02-17T06:13:24;100593.44;;;6.45;100.00
51928;BME280;37953;52.806;18.270;2023-02-17T06:15:50;100584.00;;;6.46;100.00
51928;BME280;37953;52.806;18.270;2023-02-17T06:18:16;100591.78;;;6.47;100.00
51928;BME280;37953;52.806;18.270;2023-02-17T06:20:42;100584.88;;;6.46;100.00
51928;BME280;37953;52.806;18.270;2023-02-17T06:23:08;100588.31;;;6.47;100.00
51928;BME280;37953;52.806;18.270;2023-02-17T06:25:34;100593.50;;;6.47;100.00
51928;BME280;37953;52.806;18.270;2023-02-17T06:28:00;100588.31;;;6.47;100.00
51928;BME280;37953;52.806;18.270;2023-02-17T06:30:26;100586.59;;;6.47;100.00
51928;BME280;37953;52.806;18.270;2023-02-17T06:32:52;100595.25;;;6.48;100.00
51928;BME280;37953;52.806;18.270;2023-02-17T06:35:18;100587.50;;;6.48;100.00
51928;BME280;37953;52.806;18.270;2023-02-17T06:37:44;100584.06;;;6.49;100.00
51928;BME280;37953;52.806;18.270;2023-02-17T06:40:10;100591.81;;;6.49;100.00
51928;BME280;37953;52.806;18.270;2023-02-17T06:42:36;100590.09;;;6.49;100.00
51928;BME280;37953;52.806;18.270;2023-02-17T06:45:02;100586.69;;;6.50;100.00
51928;BME280;37953;52.806;18.270;2023-02-17T06:47:31;100584.09;;;6.50;100.00
51928;BME280;37953;52.806;18.270;2023-02-17T06:49:56;100588.41;;;6.51;100.00
51928;BME280;37953;52.806;18.270;2023-02-17T06:52:23;100579.81;;;6.51;100.00
51928;BME280;37953;52.806;18.270;2023-02-17T06:54:48;100578.94;;;6.50;100.00
51928;BME280;37953;52.806;18.270;2023-02-17T06:57:15;100575.50;;;6.50;100.00
51928;BME280;37953;52.806;18.270;2023-02-17T06:59:40;100584.94;;;6.49;100.00
51928;BME280;37953;52.806;18.270;2023-02-17T07:02:09;100574.66;;;6.51;100.00
51928;BME280;37953;52.806;18.270;2023-02-17T07:04:37;100578.09;;;6.51;100.00
51928;BME280;37953;52.806;18.270;2023-02-17T07:07:03;100578.09;;;6.51;100.00
51928;BME280;37953;52.806;18.270;2023-02-17T07:09:28;100579.84;;;6.52;100.00
51928;BME280;37953;52.806;18.270;2023-02-17T07:11:55;100575.56;;;6.53;100.00
51928;BME280;37953;52.806;18.270;2023-02-17T07:14:22;100573.81;;;6.52;100.00
51928;BME280;37953;52.806;18.270;2023-02-17T07:16:48;100570.34;;;6.51;100.00
51928;BME280;37953;52.806;18.270;2023-02-17T07:19:14;100568.66;;;6.52;100.00
51928;BME280;37953;52.806;18.270;2023-02-17T07:21:40;100566.94;;;6.52;100.00
51928;BME280;37953;52.806;18.270;2023-02-17T07:24:06;100565.22;;;6.53;100.00
51928;BME280;37953;52.806;18.270;2023-02-17T07:26:34;100563.50;;;6.52;100.00
51928;BME280;37953;52.806;18.270;2023-02-17T07:29:00;100565.22;;;6.53;100.00
51928;BME280;37953;52.806;18.270;2023-02-17T07:31:26;100567.81;;;6.53;100.00
51928;BME280;37953;52.806;18.270;2023-02-17T07:33:52;100557.47;;;6.53;100.00
51928;BME280;37953;52.806;18.270;2023-02-17T07:36:18;100558.34;;;6.53;100.00
51928;BME280;37953;52.806;18.270;2023-02-17T07:38:44;100561.78;;;6.52;100.00
51928;BME280;37953;52.806;18.270;2023-02-17T07:41:12;100548.03;;;6.52;100.00
51928;BME280;37953;52.806;18.270;2023-02-17T07:43:38;100555.78;;;6.53;100.00
51928;BME280;37953;52.806;18.270;2023-02-17T07:46:04;100565.22;;;6.53;100.00
51928;BME280;37953;52.806;18.270;2023-02-17T07:48:30;100565.22;;;6.53;100.00
51928;BME280;37953;52.806;18.270;2023-02-17T07:51:02;100565.22;;;6.53;100.00
51928;BME280;37953;52.806;18.270;2023-02-17T07:53:28;100570.38;;;6.53;100.00
51928;BME280;37953;52.806;18.270;2023-02-17T07:55:54;100562.59;;;6.51;100.00
51928;BME280;37953;52.806;18.270;2023-02-17T07:58:20;100567.78;;;6.51;100.00
51928;BME280;37953;52.806;18.270;2023-02-17T08:00:45;100560.88;;;6.50;100.00
51928;BME280;37953;52.806;18.270;2023-02-17T08:03:11;100554.84;;;6.50;100.00
51928;BME280;37953;52.806;18.270;2023-02-17T08:05:38;100552.25;;;6.48;100.00
51928;BME280;37953;52.806;18.270;2023-02-17T08:08:05;100545.34;;;6.49;100.00
51928;BME280;37953;52.806;18.270;2023-02-17T08:10:49;100541.06;;;6.49;100.00
51928;BME280;37953;52.806;18.270;2023-02-17T08:13:33;100537.69;;;6.52;100.00
51928;BME280;37953;52.806;18.270;2023-02-17T08:15:59;100538.56;;;6.52;100.00
51928;BME280;37953;52.806;18.270;2023-02-17T08:18:25;100532.53;;;6.53;100.00
51928;BME280;37953;52.806;18.270;2023-02-17T08:20:51;100534.28;;;6.55;100.00
51928;BME280;37953;52.806;18.270;2023-02-17T08:23:18;100535.19;;;6.57;100.00
51928;BME280;37953;52.806;18.270;2023-02-17T08:25:44;100526.59;;;6.56;100.00
51928;BME280;37953;52.806;18.270;2023-02-17T08:28:10;100523.16;;;6.57;100.00
51928;BME280;37953;52.806;18.270;2023-02-17T08:30:37;100512.88;;;6.59;100.00
51928;BME280;37953;52.806;18.270;2023-02-17T08:33:03;100507.72;;;6.59;100.00
51928;BME280;37953;52.806;18.270;2023-02-17T08:35:29;100509.47;;;6.61;100.00
51928;BME280;37953;52.806;18.270;2023-02-17T08:37:55;100505.16;;;6.62;100.00
51928;BME280;37953;52.806;18.270;2023-02-17T08:40:21;100502.59;;;6.62;100.00
51928;BME280;37953;52.806;18.270;2023-02-17T08:42:47;100498.28;;;6.62;100.00
51928;BME280;37953;52.806;18.270;2023-02-17T08:45:14;100498.34;;;6.64;100.00
51928;BME280;37953;52.806;18.270;2023-02-17T08:47:40;100490.59;;;6.64;100.00
51928;BME280;37953;52.806;18.270;2023-02-17T08:50:07;100488.00;;;6.64;100.00
51928;BME280;37953;52.806;18.270;2023-02-17T08:52:33;100488.03;;;6.65;100.00
51928;BME280;37953;52.806;18.270;2023-02-17T08:55:02;100477.75;;;6.67;100.00
51928;BME280;37953;52.806;18.270;2023-02-17T08:57:28;100469.16;;;6.68;100.00
51928;BME280;37953;52.806;18.270;2023-02-17T08:59:54;100469.16;;;6.68;100.00
51928;BME280;37953;52.806;18.270;2023-02-17T09:02:20;100465.75;;;6.69;100.00
51928;BME280;37953;52.806;18.270;2023-02-17T09:04:46;100462.31;;;6.70;100.00
51928;BME280;37953;52.806;18.270;2023-02-17T09:07:13;100461.47;;;6.71;100.00
51928;BME280;37953;52.806;18.270;2023-02-17T09:09:39;100466.66;;;6.72;100.00
51928;BME280;37953;52.806;18.270;2023-02-17T09:12:05;100470.94;;;6.72;100.00
51928;BME280;37953;52.806;18.270;2023-02-17T09:14:31;100464.94;;;6.73;100.00
51928;BME280;37953;52.806;18.270;2023-02-17T09:16:57;100471.00;;;6.75;100.00
51928;BME280;37953;52.806;18.270;2023-02-17T09:19:24;100458.09;;;6.75;100.00
51928;BME280;37953;52.806;18.270;2023-02-17T09:21:50;100457.25;;;6.76;100.00
51928;BME280;37953;52.806;18.270;2023-02-17T09:24:17;100448.66;;;6.77;100.00
51928;BME280;37953;52.806;18.270;2023-02-17T09:26:49;100446.97;;;6.78;100.00
51928;BME280;37953;52.806;18.270;2023-02-17T09:29:15;100450.44;;;6.80;100.00
51928;BME280;37953;52.806;18.270;2023-02-17T09:31:40;100452.16;;;6.81;100.00
51928;BME280;37953;52.806;18.270;2023-02-17T09:34:07;100455.66;;;6.83;100.00
51928;BME280;37953;52.806;18.270;2023-02-17T09:36:33;100447.94;;;6.84;100.00
51928;BME280;37953;52.806;18.270;2023-02-17T09:39:02;100450.56;;;6.87;100.00
51928;BME280;37953;52.806;18.270;2023-02-17T09:41:40;100457.47;;;6.88;100.00
51928;BME280;37953;52.806;18.270;2023-02-17T09:44:30;100456.63;;;6.89;100.00
51928;BME280;37953;52.806;18.270;2023-02-17T09:49:27;100444.59;;;6.91;100.00
51928;BME280;37953;52.806;18.270;2023-02-17T09:56:50;100434.34;;;6.96;100.00
51928;BME280;37953;52.806;18.270;2023-02-17T09:59:22;100423.16;;;6.96;100.00
51928;BME280;37953;52.806;18.270;2023-02-17T10:01:49;100414.59;;;6.98;100.00
51928;BME280;37953;52.806;18.270;2023-02-17T10:04:23;100421.50;;;6.99;100.00
51928;BME280;37953;52.806;18.270;2023-02-17T10:07:13;100426.72;;;7.01;100.00
51928;BME280;37953;52.806;18.270;2023-02-17T10:09:43;100412.06;;;7.01;100.00
51928;BME280;37953;52.806;18.270;2023-02-17T10:12:35;100408.63;;;7.02;100.00
51928;BME280;37953;52.806;18.270;2023-02-17T10:15:07;100397.47;;;7.03;100.00
51928;BME280;37953;52.806;18.270;2023-02-17T10:22:44;100384.63;;;7.08;100.00
51928;BME280;37953;52.806;18.270;2023-02-17T10:25:13;100384.63;;;7.08;100.00
51928;BME280;37953;52.806;18.270;2023-02-17T10:40:44;100367.47;;;7.13;100.00
51928;BME280;37953;52.806;18.270;2023-02-17T10:43:11;100363.19;;;7.13;100.00
51928;BME280;37953;52.806;18.270;2023-02-17T10:48:06;100357.19;;;7.16;100.00
51928;BME280;37953;52.806;18.270;2023-02-17T10:50:42;100339.94;;;7.15;100.00
51928;BME280;37953;52.806;18.270;2023-02-17T10:53:20;100321.88;;;7.17;100.00
51928;BME280;37953;52.806;18.270;2023-02-17T10:58:38;100297.81;;;7.19;100.00
51928;BME280;37953;52.806;18.270;2023-02-17T11:01:06;100293.53;;;7.20;100.00
51928;BME280;37953;52.806;18.270;2023-02-17T11:03:32;100289.22;;;7.20;100.00
51928;BME280;37953;52.806;18.270;2023-02-17T11:05:59;100289.25;;;7.22;100.00
51928;BME280;37953;52.806;18.270;2023-02-17T11:08:38;100281.50;;;7.23;100.00
51928;BME280;37953;52.806;18.270;2023-02-17T11:13:43;100261.72;;;7.25;100.00
51928;BME280;37953;52.806;18.270;2023-02-17T11:16:24;100251.41;;;7.27;100.00
51928;BME280;37953;52.806;18.270;2023-02-17T11:18:51;100242.78;;;7.28;100.00
51928;BME280;37953;52.806;18.270;2023-02-17T11:21:18;100245.41;;;7.29;100.00
51928;BME280;37953;52.806;18.270;2023-02-17T11:23:48;100241.09;;;7.30;100.00
51928;BME280;37953;52.806;18.270;2023-02-17T11:26:21;100227.34;;;7.31;100.00
51928;BME280;37953;52.806;18.270;2023-02-17T11:28:47;100222.22;;;7.32;100.00
51928;BME280;37953;52.806;18.270;2023-02-17T11:31:30;100218.78;;;7.35;100.00
51928;BME280;37953;52.806;18.270;2023-02-17T11:34:08;100217.06;;;7.36;100.00
51928;BME280;37953;52.806;18.270;2023-02-17T11:36:36;100211.91;;;7.37;100.00
51928;BME280;37953;52.806;18.270;2023-02-17T11:39:12;100201.56;;;7.39;100.00
51928;BME280;37953;52.806;18.270;2023-02-17T11:41:41;100200.75;;;7.40;100.00
51928;BME280;37953;52.806;18.270;2023-02-17T11:44:07;100187.84;;;7.41;100.00
51928;BME280;37953;52.806;18.270;2023-02-17T11:46:46;100184.41;;;7.44;100.00
51928;BME280;37953;52.806;18.270;2023-02-17T11:54:35;100161.19;;;7.47;100.00
51928;BME280;37953;52.806;18.270;2023-02-17T12:18:40;100121.66;;;7.57;100.00
51928;BME280;37953;52.806;18.270;2023-02-17T12:23:09;100112.19;;;7.59;100.00
51928;BME280;37953;52.806;18.270;2023-02-17T12:34:01;100092.44;;;7.64;100.00
51928;BME280;37953;52.806;18.270;2023-02-17T12:36:30;100092.44;;;7.66;100.00
51928;BME280;37953;52.806;18.270;2023-02-17T12:39:02;100082.09;;;7.66;100.00
51928;BME280;37953;52.806;18.270;2023-02-17T12:41:35;100074.34;;;7.66;100.00
51928;BME280;37953;52.806;18.270;2023-02-17T12:44:08;100071.78;;;7.67;100.00
51928;BME280;37953;52.806;18.270;2023-02-17T12:46:39;100062.31;;;7.69;100.00
51928;BME280;37953;52.806;18.270;2023-02-17T12:49:10;100058.88;;;7.69;100.00
51928;BME280;37953;52.806;18.270;2023-02-17T12:51:42;100049.38;;;7.69;100.00
51928;BME280;37953;52.806;18.270;2023-02-17T12:59:47;100040.78;;;7.73;100.00
51928;BME280;37953;52.806;18.270;2023-02-17T13:02:19;100031.31;;;7.74;100.00
51928;BME280;37953;52.806;18.270;2023-02-17T13:04:49;100022.72;;;7.75;100.00
51928;BME280;37953;52.806;18.270;2023-02-17T13:10:05;100005.47;;;7.75;100.00
51928;BME280;37953;52.806;18.270;2023-02-17T13:12:38;100008.94;;;7.78;100.00
51928;BME280;37953;52.806;18.270;2023-02-17T13:15:10;100006.34;;;7.78;100.00
51928;BME280;37953;52.806;18.270;2023-02-17T13:17:55;100002.88;;;7.79;100.00
51928;BME280;37953;52.806;18.270;2023-02-17T13:20:51;99989.13;;;7.80;100.00
51928;BME280;37953;52.806;18.270;2023-02-17T13:28:41;99973.63;;;7.83;100.00
51928;BME280;37953;52.806;18.270;2023-02-17T13:31:08;99964.16;;;7.83;100.00
51928;BME280;37953;52.806;18.270;2023-02-17T13:33:39;99959.84;;;7.84;100.00
51928;BME280;37953;52.806;18.270;2023-02-17T13:36:38;99954.69;;;7.85;100.00
51928;BME280;37953;52.806;18.270;2023-02-17T13:38:58;99953.81;;;7.86;100.00
51928;BME280;37953;52.806;18.270;2023-02-17T13:41:26;99942.63;;;7.87;100.00
51928;BME280;37953;52.806;18.270;2023-02-17T13:43:52;99935.72;;;7.88;100.00
51928;BME280;37953;52.806;18.270;2023-02-17T13:46:22;99925.38;;;7.89;100.00
51928;BME280;37953;52.806;18.270;2023-02-17T13:49:03;99919.34;;;7.90;100.00
51928;BME280;37953;52.806;18.270;2023-02-17T13:51:29;99916.78;;;7.93;100.00
51928;BME280;37953;52.806;18.270;2023-02-17T13:53:56;99912.50;;;7.94;100.00
51928;BME280;37953;52.806;18.270;2023-02-17T13:56:29;99898.69;;;7.95;100.00
51928;BME280;37953;52.806;18.270;2023-02-17T13:59:08;99890.09;;;7.96;100.00
51928;BME280;37953;52.806;18.270;2023-02-17T14:01:35;99879.72;;;7.98;100.00
51928;BME280;37953;52.806;18.270;2023-02-17T14:04:02;99874.53;;;7.98;100.00
51928;BME280;37953;52.806;18.270;2023-02-17T14:06:29;99869.38;;;7.99;100.00
51928;BME280;37953;52.806;18.270;2023-02-17T14:09:28;99865.06;;;8.00;100.00
51928;BME280;37953;52.806;18.270;2023-02-17T14:11:55;99866.81;;;8.02;100.00
51928;BME280;37953;52.806;18.270;2023-02-17T14:14:22;99857.31;;;8.04;100.00
51928;BME280;37953;52.806;18.270;2023-02-17T14:19:44;99846.13;;;8.05;100.00
51928;BME280;37953;52.806;18.270;2023-02-17T14:22:21;99837.50;;;8.06;100.00
51928;BME280;37953;52.806;18.270;2023-02-17T14:24:57;99834.06;;;8.07;100.00
51928;BME280;37953;52.806;18.270;2023-02-17T14:27:23;99822.84;;;8.08;100.00
51928;BME280;37953;52.806;18.270;2023-02-17T14:29:49;99818.53;;;8.10;100.00
51928;BME280;37953;52.806;18.270;2023-02-17T14:32:25;99815.09;;;8.10;100.00
51928;BME280;37953;52.806;18.270;2023-02-17T14:37:41;99796.13;;;8.12;100.00
51928;BME280;37953;52.806;18.270;2023-02-17T14:40:22;99792.69;;;8.13;100.00
51928;BME280;37953;52.806;18.270;2023-02-17T14:42:49;99789.22;;;8.14;100.00
51928;BME280;37953;52.806;18.270;2023-02-17T14:45:18;99781.47;;;8.16;100.00
51928;BME280;37953;52.806;18.270;2023-02-17T14:47:44;99773.72;;;8.18;100.00